sensor_id;sensor_type;location;lat;lon;timestamp;P1;durP1;ratioP1;P2;durP2;ratioP2
36789;SDS011;22740;52.182;8.780;2023-02-11T00:02:43;61.67;;;30.90;;
36789;SDS011;22740;52.182;8.780;2023-02-11T00:08:48;59.05;;;30.50;;
36789;SDS011;22740;52.182;8.780;2023-02-11T00:14:50;62.67;;;31.38;;
36789;SDS011;22740;52.182;8.780;2023-02-11T00:20:52;59.28;;;30.90;;
36789;SDS011;22740;52.182;8.780;2023-02-11T00:26:53;60.00;;;29.52;;
36789;SDS011;22740;52.182;8.780;2023-02-11T00:32:55;59.45;;;31.60;;
36789;SDS011;22740;52.182;8.780;2023-02-11T00:38:57;56.42;;;29.92;;
36789;SDS011;22740;52.182;8.780;2023-02-11T00:44:59;60.80;;;30.25;;
36789;SDS011;22740;52.182;8.780;2023-02-11T00:51:02;58.50;;;30.67;;
36789;SDS011;22740;52.182;8.780;2023-02-11T00:57:04;65.00;;;31.55;;
36789;SDS011;22740;52.182;8.780;2023-02-11T01:03:06;59.15;;;31.92;;
36789;SDS011;22740;52.182;8.780;2023-02-11T01:09:07;60.17;;;30.67;;
36789;SDS011;22740;52.182;8.780;2023-02-11T01:15:10;57.92;;;29.13;;
36789;SDS011;22740;52.182;8.780;2023-02-11T01:21:16;64.43;;;30.98;;
36789;SDS011;22740;52.182;8.780;2023-02-11T01:27:18;65.65;;;30.73;;
36789;SDS011;22740;52.182;8.780;2023-02-11T01:33:20;55.28;;;29.90;;
36789;SDS011;22740;52.182;8.780;2023-02-11T01:39:22;58.33;;;30.60;;
36789;SDS011;22740;52.182;8.780;2023-02-11T01:51:55;53.88;;;29.10;;
36789;SDS011;22740;52.182;8.780;2023-02-11T01:58:01;56.15;;;29.02;;
36789;SDS011;22740;52.182;8.780;2023-02-11T02:04:05;55.13;;;28.33;;
36789;SDS011;22740;52.182;8.780;2023-02-11T02:10:11;60.97;;;30.05;;
36789;SDS011;22740;52.182;8.780;2023-02-11T02:16:17;59.25;;;29.63;;
36789;SDS011;22740;52.182;8.780;2023-02-11T02:22:41;58.85;;;29.60;;
36789;SDS011;22740;52.182;8.780;2023-02-11T02:41:18;67.30;;;32.80;;
36789;SDS011;22740;52.182;8.780;2023-02-11T02:47:23;67.32;;;32.45;;
36789;SDS011;22740;52.182;8.780;2023-02-11T02:53:31;65.63;;;31.30;;
36789;SDS011;22740;52.182;8.780;2023-02-11T03:06:24;69.40;;;33.15;;
36789;SDS011;22740;52.182;8.780;2023-02-11T03:12:38;62.75;;;31.23;;
36789;SDS011;22740;52.182;8.780;2023-02-11T03:18:46;68.45;;;34.25;;
36789;SDS011;22740;52.182;8.780;2023-02-11T03:24:51;66.20;;;32.72;;
36789;SDS011;22740;52.182;8.780;2023-02-11T03:30:58;64.57;;;31.15;;
36789;SDS011;22740;52.182;8.780;2023-02-11T03:37:16;72.95;;;34.13;;
36789;SDS011;22740;52.182;8.780;2023-02-11T03:43:44;69.93;;;33.78;;
36789;SDS011;22740;52.182;8.780;2023-02-11T03:49:49;72.65;;;35.55;;
36789;SDS011;22740;52.182;8.780;2023-02-11T03:55:53;66.95;;;33.22;;
36789;SDS011;22740;52.182;8.780;2023-02-11T04:01:58;74.47;;;35.53;;
36789;SDS011;22740;52.182;8.780;2023-02-11T04:08:00;78.57;;;35.53;;
36789;SDS011;22740;52.182;8.780;2023-02-11T04:14:02;65.50;;;35.28;;
36789;SDS011;22740;52.182;8.780;2023-02-11T04:20:04;69.00;;;34.58;;
36789;SDS011;22740;52.182;8.780;2023-02-11T04:26:06;74.70;;;36.40;;
36789;SDS011;22740;52.182;8.780;2023-02-11T04:32:09;82.53;;;36.30;;
36789;SDS011;22740;52.182;8.780;2023-02-11T04:38:12;74.25;;;34.55;;
36789;SDS011;22740;52.182;8.780;2023-02-11T04:44:14;74.80;;;35.58;;
36789;SDS011;22740;52.182;8.780;2023-02-11T04:50:16;74.78;;;36.63;;
36789;SDS011;22740;52.182;8.780;2023-02-11T04:56:17;73.38;;;35.53;;
36789;SDS011;22740;52.182;8.780;2023-02-11T05:02:19;68.45;;;33.08;;
36789;SDS011;22740;52.182;8.780;2023-02-11T05:08:21;73.72;;;34.08;;
36789;SDS011;22740;52.182;8.780;2023-02-11T05:14:23;67.88;;;32.28;;
36789;SDS011;22740;52.182;8.780;2023-02-11T05:20:24;61.13;;;31.30;;
36789;SDS011;22740;52.182;8.780;2023-02-11T05:26:26;63.58;;;31.73;;
36789;SDS011;22740;52.182;8.780;2023-02-11T05:32:28;55.65;;;29.90;;
36789;SDS011;22740;52.182;8.780;2023-02-11T05:38:30;56.88;;;28.58;;
36789;SDS011;22740;52.182;8.780;2023-02-11T05:44:32;52.90;;;27.27;;
36789;SDS011;22740;52.182;8.780;2023-02-11T05:50:33;54.65;;;27.63;;
36789;SDS011;22740;52.182;8.780;2023-02-11T05:56:35;53.90;;;27.20;;
36789;SDS011;22740;52.182;8.780;2023-02-11T06:02:37;49.83;;;27.00;;
36789;SDS011;22740;52.182;8.780;2023-02-11T06:08:39;54.70;;;28.25;;
36789;SDS011;22740;52.182;8.780;2023-02-11T06:14:41;54.75;;;27.45;;
36789;SDS011;22740;52.182;8.780;2023-02-11T06:20:42;53.15;;;26.60;;
36789;SDS011;22740;52.182;8.780;2023-02-11T06:26:44;52.20;;;27.40;;
36789;SDS011;22740;52.182;8.780;2023-02-11T06:32:46;54.45;;;28.58;;
36789;SDS011;22740;52.182;8.780;2023-02-11T06:38:48;60.97;;;27.33;;
36789;SDS011;22740;52.182;8.780;2023-02-11T06:44:50;59.05;;;28.20;;
36789;SDS011;22740;52.182;8.780;2023-02-11T06:50:52;57.20;;;27.77;;
36789;SDS011;22740;52.182;8.780;2023-02-11T06:56:53;54.20;;;26.75;;
36789;SDS011;22740;52.182;8.780;2023-02-11T07:02:55;54.85;;;27.75;;
36789;SDS011;22740;52.182;8.780;2023-02-11T07:08:57;53.13;;;27.58;;
36789;SDS011;22740;52.182;8.780;2023-02-11T07:14:59;61.83;;;29.15;;
36789;SDS011;22740;52.182;8.780;2023-02-11T07:21:04;59.65;;;28.67;;
36789;SDS011;22740;52.182;8.780;2023-02-11T07:27:07;55.30;;;27.70;;
36789;SDS011;22740;52.182;8.780;2023-02-11T07:33:09;56.30;;;28.50;;
36789;SDS011;22740;52.182;8.780;2023-02-11T07:39:10;60.92;;;28.80;;
36789;SDS011;22740;52.182;8.780;2023-02-11T07:45:12;60.97;;;29.70;;
36789;SDS011;22740;52.182;8.780;2023-02-11T07:51:16;62.78;;;29.48;;
36789;SDS011;22740;52.182;8.780;2023-02-11T08:03:21;50.53;;;28.00;;
36789;SDS011;22740;52.182;8.780;2023-02-11T08:09:23;55.22;;;28.83;;
36789;SDS011;22740;52.182;8.780;2023-02-11T08:15:25;60.33;;;30.20;;
36789;SDS011;22740;52.182;8.780;2023-02-11T08:21:27;59.42;;;28.50;;
36789;SDS011;22740;52.182;8.780;2023-02-11T08:27:29;64.85;;;31.52;;
36789;SDS011;22740;52.182;8.780;2023-02-11T08:33:31;57.90;;;27.75;;
36789;SDS011;22740;52.182;8.780;2023-02-11T08:39:33;57.75;;;28.00;;
36789;SDS011;22740;52.182;8.780;2023-02-11T08:45:36;57.10;;;28.77;;
36789;SDS011;22740;52.182;8.780;2023-02-11T08:51:37;60.75;;;27.15;;
36789;SDS011;22740;52.182;8.780;2023-02-11T08:57:39;58.78;;;28.27;;
36789;SDS011;22740;52.182;8.780;2023-02-11T09:03:41;55.95;;;26.33;;
36789;SDS011;22740;52.182;8.780;2023-02-11T09:09:43;62.17;;;28.70;;
36789;SDS011;22740;52.182;8.780;2023-02-11T09:15:45;59.75;;;28.50;;
36789;SDS011;22740;52.182;8.780;2023-02-11T09:21:47;70.65;;;30.88;;
36789;SDS011;22740;52.182;8.780;2023-02-11T09:27:49;57.53;;;29.10;;
36789;SDS011;22740;52.182;8.780;2023-02-11T09:33:56;64.97;;;30.23;;
36789;SDS011;22740;52.182;8.780;2023-02-11T09:40:00;58.72;;;28.40;;
36789;SDS011;22740;52.182;8.780;2023-02-11T09:46:02;56.50;;;28.58;;
36789;SDS011;22740;52.182;8.780;2023-02-11T09:52:07;61.25;;;28.40;;
36789;SDS011;22740;52.182;8.780;2023-02-11T09:58:26;57.05;;;27.05;;
36789;SDS011;22740;52.182;8.780;2023-02-11T10:10:53;53.45;;;26.67;;
36789;SDS011;22740;52.182;8.780;2023-02-11T10:23:36;55.40;;;27.25;;
36789;SDS011;22740;52.182;8.780;2023-02-11T10:29:43;54.20;;;27.15;;
36789;SDS011;22740;52.182;8.780;2023-02-11T10:35:50;52.25;;;26.00;;
36789;SDS011;22740;52.182;8.780;2023-02-11T10:41:56;54.50;;;27.33;;
36789;SDS011;22740;52.182;8.780;2023-02-11T10:48:05;54.00;;;27.00;;
36789;SDS011;22740;52.182;8.780;2023-02-11T10:54:27;60.65;;;27.88;;
36789;SDS011;22740;52.182;8.780;2023-02-11T11:00:33;60.15;;;28.75;;
36789;SDS011;22740;52.182;8.780;2023-02-11T11:06:39;57.28;;;27.23;;
36789;SDS011;22740;52.182;8.780;2023-02-11T11:24:48;49.63;;;24.80;;
36789;SDS011;22740;52.182;8.780;2023-02-11T11:30:54;48.30;;;24.27;;
36789;SDS011;22740;52.182;8.780;2023-02-11T11:36:58;45.92;;;23.35;;
36789;SDS011;22740;52.182;8.780;2023-02-11T12:14:48;35.92;;;19.00;;
36789;SDS011;22740;52.182;8.780;2023-02-11T12:46:31;43.65;;;21.23;;
36789;SDS011;22740;52.182;8.780;2023-02-11T12:58:49;51.08;;;23.17;;
36789;SDS011;22740;52.182;8.780;2023-02-11T13:05:03;41.88;;;21.70;;
36789;SDS011;22740;52.182;8.780;2023-02-11T13:11:29;45.72;;;21.92;;
36789;SDS011;22740;52.182;8.780;2023-02-11T13:17:49;39.15;;;20.08;;
36789;SDS011;22740;52.182;8.780;2023-02-11T13:24:14;41.28;;;21.10;;
36789;SDS011;22740;52.182;8.780;2023-02-11T13:30:35;44.78;;;21.45;;
36789;SDS011;22740;52.182;8.780;2023-02-11T13:36:40;45.13;;;23.33;;
36789;SDS011;22740;52.182;8.780;2023-02-11T13:42:57;49.97;;;24.67;;
36789;SDS011;22740;52.182;8.780;2023-02-11T14:08:21;49.50;;;23.05;;
36789;SDS011;22740;52.182;8.780;2023-02-11T14:14:59;46.65;;;22.92;;
36789;SDS011;22740;52.182;8.780;2023-02-11T14:21:21;44.20;;;21.85;;
36789;SDS011;22740;52.182;8.780;2023-02-11T14:27:33;44.38;;;22.90;;
36789;SDS011;22740;52.182;8.780;2023-02-11T14:46:07;50.75;;;23.35;;
36789;SDS011;22740;52.182;8.780;2023-02-11T14:52:14;43.20;;;22.52;;
36789;SDS011;22740;52.182;8.780;2023-02-11T14:58:33;41.65;;;23.08;;
36789;SDS011;22740;52.182;8.780;2023-02-11T15:04:35;47.55;;;23.40;;
36789;SDS011;22740;52.182;8.780;2023-02-11T15:10:40;44.50;;;22.58;;
36789;SDS011;22740;52.182;8.780;2023-02-11T15:16:44;52.50;;;24.60;;
36789;SDS011;22740;52.182;8.780;2023-02-11T15:22:47;47.40;;;24.77;;
36789;SDS011;22740;52.182;8.780;2023-02-11T15:28:56;48.72;;;23.20;;
36789;SDS011;22740;52.182;8.780;2023-02-11T15:34:58;47.13;;;23.38;;
36789;SDS011;22740;52.182;8.780;2023-02-11T15:41:01;48.25;;;24.45;;
36789;SDS011;22740;52.182;8.780;2023-02-11T15:47:07;41.23;;;24.60;;
36789;SDS011;22740;52.182;8.780;2023-02-11T15:53:27;45.03;;;23.15;;
36789;SDS011;22740;52.182;8.780;2023-02-11T15:59:49;46.33;;;24.55;;
36789;SDS011;22740;52.182;8.780;2023-02-11T16:05:53;46.33;;;22.67;;
36789;SDS011;22740;52.182;8.780;2023-02-11T16:12:01;40.47;;;23.13;;
36789;SDS011;22740;52.182;8.780;2023-02-11T16:18:12;40.25;;;21.92;;
36789;SDS011;22740;52.182;8.780;2023-02-11T16:24:37;44.55;;;22.92;;
36789;SDS011;22740;52.182;8.780;2023-02-11T16:30:40;42.60;;;23.65;;
36789;SDS011;22740;52.182;8.780;2023-02-11T16:36:43;47.53;;;23.58;;
36789;SDS011;22740;52.182;8.780;2023-02-11T16:42:46;46.20;;;23.67;;
36789;SDS011;22740;52.182;8.780;2023-02-11T16:48:47;44.92;;;24.25;;
36789;SDS011;22740;52.182;8.780;2023-02-11T16:54:49;50.33;;;24.58;;
36789;SDS011;22740;52.182;8.780;2023-02-11T17:00:51;47.70;;;23.63;;
36789;SDS011;22740;52.182;8.780;2023-02-11T17:06:54;39.50;;;23.08;;
36789;SDS011;22740;52.182;8.780;2023-02-11T17:19:01;45.90;;;23.33;;
36789;SDS011;22740;52.182;8.780;2023-02-11T17:25:03;48.75;;;23.05;;
36789;SDS011;22740;52.182;8.780;2023-02-11T17:31:07;42.97;;;23.27;;
36789;SDS011;22740;52.182;8.780;2023-02-11T17:37:09;46.53;;;22.50;;
36789;SDS011;22740;52.182;8.780;2023-02-11T17:43:11;39.30;;;22.33;;
36789;SDS011;22740;52.182;8.780;2023-02-11T17:49:13;40.25;;;21.55;;
36789;SDS011;22740;52.182;8.780;2023-02-11T17:55:15;40.72;;;23.17;;
36789;SDS011;22740;52.182;8.780;2023-02-11T18:01:17;42.58;;;23.45;;
36789;SDS011;22740;52.182;8.780;2023-02-11T18:07:20;43.20;;;22.75;;
36789;SDS011;22740;52.182;8.780;2023-02-11T18:13:21;40.95;;;22.00;;
36789;SDS011;22740;52.182;8.780;2023-02-11T18:19:23;38.13;;;21.30;;
36789;SDS011;22740;52.182;8.780;2023-02-11T18:25:25;37.60;;;22.23;;
36789;SDS011;22740;52.182;8.780;2023-02-11T18:31:27;35.58;;;20.50;;
36789;SDS011;22740;52.182;8.780;2023-02-11T18:37:29;35.58;;;21.65;;
36789;SDS011;22740;52.182;8.780;2023-02-11T18:43:31;40.42;;;22.80;;
36789;SDS011;22740;52.182;8.780;2023-02-11T18:49:34;39.05;;;22.05;;
36789;SDS011;22740;52.182;8.780;2023-02-11T18:55:37;41.72;;;22.55;;
36789;SDS011;22740;52.182;8.780;2023-02-11T19:01:40;39.73;;;22.63;;
36789;SDS011;22740;52.182;8.780;2023-02-11T19:07:43;39.88;;;22.45;;
36789;SDS011;22740;52.182;8.780;2023-02-11T19:13:45;35.67;;;21.98;;
36789;SDS011;22740;52.182;8.780;2023-02-11T19:19:51;37.90;;;22.67;;
36789;SDS011;22740;52.182;8.780;2023-02-11T19:25:53;38.55;;;22.88;;
36789;SDS011;22740;52.182;8.780;2023-02-11T19:31:55;38.30;;;23.48;;
36789;SDS011;22740;52.182;8.780;2023-02-11T19:37:57;47.25;;;23.60;;
36789;SDS011;22740;52.182;8.780;2023-02-11T19:43:59;39.88;;;23.75;;
36789;SDS011;22740;52.182;8.780;2023-02-11T19:50:03;41.80;;;23.02;;
36789;SDS011;22740;52.182;8.780;2023-02-11T19:56:06;42.37;;;24.00;;
36789;SDS011;22740;52.182;8.780;2023-02-11T20:02:11;47.65;;;24.80;;
36789;SDS011;22740;52.182;8.780;2023-02-11T20:08:13;40.75;;;23.88;;
36789;SDS011;22740;52.182;8.780;2023-02-11T20:14:17;40.80;;;24.45;;
36789;SDS011;22740;52.182;8.780;2023-02-11T20:20:19;40.03;;;23.00;;
36789;SDS011;22740;52.182;8.780;2023-02-11T20:32:24;47.08;;;23.73;;
36789;SDS011;22740;52.182;8.780;2023-02-11T20:38:26;38.17;;;22.67;;
36789;SDS011;22740;52.182;8.780;2023-02-11T20:44:28;41.28;;;24.08;;
36789;SDS011;22740;52.182;8.780;2023-02-11T20:50:29;39.67;;;22.60;;
36789;SDS011;22740;52.182;8.780;2023-02-11T20:56:34;37.55;;;22.88;;
36789;SDS011;22740;52.182;8.780;2023-02-11T21:02:37;43.43;;;23.43;;
36789;SDS011;22740;52.182;8.780;2023-02-11T21:08:39;41.63;;;22.52;;
36789;SDS011;22740;52.182;8.780;2023-02-11T21:14:41;33.40;;;21.10;;
36789;SDS011;22740;52.182;8.780;2023-02-11T21:20:43;38.72;;;22.25;;
36789;SDS011;22740;52.182;8.780;2023-02-11T21:26:44;36.33;;;21.65;;
36789;SDS011;22740;52.182;8.780;2023-02-11T21:32:46;34.50;;;21.17;;
36789;SDS011;22740;52.182;8.780;2023-02-11T21:38:48;34.33;;;20.30;;
36789;SDS011;22740;52.182;8.780;2023-02-11T21:44:50;36.90;;;21.90;;
36789;SDS011;22740;52.182;8.780;2023-02-11T21:50:52;33.22;;;20.08;;
36789;SDS011;22740;52.182;8.780;2023-02-11T21:56:54;24.58;;;16.60;;
36789;SDS011;22740;52.182;8.780;2023-02-11T22:02:56;28.52;;;16.55;;
36789;SDS011;22740;52.182;8.780;2023-02-11T22:09:01;32.33;;;16.80;;
36789;SDS011;22740;52.182;8.780;2023-02-11T22:15:08;23.00;;;13.15;;
36789;SDS011;22740;52.182;8.780;2023-02-11T22:21:11;24.60;;;12.45;;
36789;SDS011;22740;52.182;8.780;2023-02-11T22:27:15;22.42;;;11.68;;
36789;SDS011;22740;52.182;8.780;2023-02-11T22:33:21;20.52;;;11.27;;
36789;SDS011;22740;52.182;8.780;2023-02-11T22:39:24;23.60;;;12.23;;
36789;SDS011;22740;52.182;8.780;2023-02-11T22:45:26;24.33;;;14.65;;
36789;SDS011;22740;52.182;8.780;2023-02-11T22:51:28;26.08;;;15.10;;
36789;SDS011;22740;52.182;8.780;2023-02-11T22:57:31;27.17;;;16.45;;
36789;SDS011;22740;52.182;8.780;2023-02-11T23:03:33;24.63;;;13.73;;
36789;SDS011;22740;52.182;8.780;2023-02-11T23:09:35;22.02;;;13.15;;
36789;SDS011;22740;52.182;8.780;2023-02-11T23:15:38;20.73;;;11.98;;
36789;SDS011;22740;52.182;8.780;2023-02-11T23:21:41;23.00;;;11.90;;
36789;SDS011;22740;52.182;8.780;2023-02-11T23:27:43;18.58;;;10.35;;
36789;SDS011;22740;52.182;8.780;2023-02-11T23:33:45;15.02;;;9.23;;
36789;SDS011;22740;52.182;8.780;2023-02-11T23:39:47;16.60;;;8.10;;
36789;SDS011;22740;52.182;8.780;2023-02-11T23:45:49;16.23;;;8.20;;
36789;SDS011;22740;52.182;8.780;2023-02-11T23:51:52;13.57;;;7.43;;
36789;SDS011;22740;52.182;8.780;2023-02-11T23:57:54;13.40;;;8.15;;
